createdAt,value
2018-01-07T00:01:13.592Z,10.47
2018-01-07T00:03:41.156Z,9.67
2018-01-07T00:06:08.705Z,9.20
2018-01-07T00:08:36.316Z,10.67
2018-01-07T00:11:03.870Z,14.37
2018-01-07T00:13:31.520Z,12.33
2018-01-07T00:15:59.060Z,11.97
2018-01-07T00:18:26.644Z,9.33
2018-01-07T00:20:54.197Z,10.27
2018-01-07T00:23:21.775Z,18.80
2018-01-07T00:25:49.326Z,18.03
2018-01-07T00:28:16.881Z,11.83
2018-01-07T00:30:44.420Z,12.17
2018-01-07T00:33:11.980Z,11.07
2018-01-07T00:35:39.556Z,13.57
2018-01-07T00:38:07.112Z,13.70
2018-01-07T00:40:34.677Z,10.53
2018-01-07T00:43:02.233Z,11.27
2018-01-07T00:45:29.798Z,10.50
2018-01-07T00:47:57.349Z,7.67
2018-01-07T00:50:24.921Z,7.53
2018-01-07T00:52:52.468Z,9.57
2018-01-07T00:55:20.024Z,6.87
2018-01-07T00:57:47.647Z,9.43
2018-01-07T01:00:15.244Z,9.10
2018-01-07T01:02:42.761Z,8.90
2018-01-07T01:05:10.259Z,8.47
2018-01-07T01:07:37.786Z,10.10
2018-01-07T01:10:05.342Z,7.63
2018-01-07T01:12:32.838Z,9.70
2018-01-07T01:15:00.355Z,7.90
2018-01-07T01:17:27.854Z,9.87
2018-01-07T01:19:55.470Z,12.53
2018-01-07T01:22:22.979Z,12.00
2018-01-07T01:24:50.913Z,12.70
2018-01-07T01:27:18.414Z,13.00
2018-01-07T01:29:46.703Z,11.27
2018-01-07T01:32:14.208Z,13.93
2018-01-07T01:34:41.723Z,13.47
2018-01-07T01:37:09.993Z,13.07
2018-01-07T01:39:37.515Z,11.10
2018-01-07T01:42:05.007Z,10.40
2018-01-07T01:44:32.598Z,14.50
2018-01-07T01:47:00.094Z,14.67
2018-01-07T01:49:27.619Z,15.23
2018-01-07T01:51:55.173Z,10.77
2018-01-07T01:54:22.686Z,10.33
2018-01-07T01:56:50.292Z,12.17
2018-01-07T01:59:17.802Z,13.37
2018-01-07T02:01:45.306Z,13.93
2018-01-07T02:04:12.818Z,14.03
2018-01-07T02:06:40.327Z,15.40
2018-01-07T02:09:07.893Z,11.03
2018-01-07T02:11:36.132Z,11.20
2018-01-07T02:14:03.641Z,13.77
2018-01-07T02:16:31.138Z,12.17
2018-01-07T02:18:58.729Z,12.87
2018-01-07T02:21:26.989Z,13.37
2018-01-07T02:23:55.285Z,14.50
2018-01-07T02:26:22.787Z,14.77
2018-01-07T02:28:50.302Z,12.90
2018-01-07T02:31:17.800Z,15.43
2018-01-07T02:33:45.314Z,13.80
2018-01-07T02:36:12.878Z,17.30
2018-01-07T02:38:40.410Z,18.07
2018-01-07T02:41:08.679Z,16.37
2018-01-07T02:43:36.594Z,15.90
2018-01-07T02:46:04.099Z,18.60
2018-01-07T02:48:31.626Z,21.07
2018-01-07T02:50:59.132Z,20.97
2018-01-07T02:53:27.426Z,27.20
2018-01-07T02:55:54.930Z,27.10
2018-01-07T02:58:22.450Z,21.60
2018-01-07T03:00:49.946Z,24.77
2018-01-07T03:03:17.467Z,24.73
2018-01-07T03:05:45.027Z,29.03
2018-01-07T03:08:12.538Z,31.00
2018-01-07T03:10:40.134Z,34.23
2018-01-07T03:13:07.693Z,26.47
2018-01-07T03:15:35.226Z,17.03
2018-01-07T03:18:02.960Z,18.37
2018-01-07T03:20:30.479Z,15.77
2018-01-07T03:22:57.985Z,18.17
2018-01-07T03:25:25.502Z,26.40
2018-01-07T03:27:53.059Z,25.37
2018-01-07T03:30:20.625Z,25.27
2018-01-07T03:32:48.170Z,24.50
2018-01-07T03:35:15.729Z,20.47
2018-01-07T03:37:43.613Z,25.90
2018-01-07T03:40:11.163Z,21.23
2018-01-07T03:42:38.654Z,16.63
2018-01-07T03:45:06.165Z,16.60
2018-01-07T03:47:34.450Z,14.30
2018-01-07T03:50:01.962Z,21.50
2018-01-07T03:52:29.466Z,16.93
2018-01-07T03:54:56.986Z,14.53
2018-01-07T03:57:24.478Z,16.40
2018-01-07T03:59:51.989Z,18.87
2018-01-07T04:02:19.494Z,18.90
2018-01-07T04:04:47.009Z,20.07
2018-01-07T04:07:14.511Z,16.33
2018-01-07T04:09:42.028Z,19.80
2018-01-07T04:12:09.543Z,18.63
2018-01-07T04:14:37.082Z,19.37
2018-01-07T04:17:04.642Z,16.60
2018-01-07T04:19:32.169Z,21.50
2018-01-07T04:21:59.683Z,23.83
2018-01-07T04:24:27.202Z,22.53
2018-01-07T04:26:55.498Z,18.63
2018-01-07T04:29:23.019Z,21.27
2018-01-07T04:31:50.611Z,19.47
2018-01-07T04:34:18.126Z,16.73
2018-01-07T04:36:45.631Z,21.13
2018-01-07T04:39:13.194Z,16.40
2018-01-07T04:41:40.687Z,14.83
2018-01-07T04:44:08.215Z,19.17
2018-01-07T04:46:35.770Z,17.13
2018-01-07T04:49:03.282Z,15.57
2018-01-07T04:51:30.783Z,18.63
2018-01-07T04:53:58.309Z,19.57
2018-01-07T04:56:25.807Z,16.50
2018-01-07T04:58:53.367Z,18.83
2018-01-07T05:01:20.870Z,18.87
2018-01-07T05:03:49.129Z,15.93
2018-01-07T05:06:16.748Z,15.07
2018-01-07T05:08:44.306Z,14.50
2018-01-07T05:11:11.834Z,17.03
2018-01-07T05:13:40.843Z,17.10
2018-01-07T05:16:09.129Z,17.77
2018-01-07T05:18:36.695Z,18.57
2018-01-07T05:21:04.210Z,17.17
2018-01-07T05:23:31.718Z,13.77
2018-01-07T05:25:59.279Z,17.70
2018-01-07T05:28:26.825Z,17.73
2018-01-07T05:30:54.402Z,15.57
2018-01-07T05:33:21.954Z,14.23
2018-01-07T05:35:49.506Z,15.27
2018-01-07T05:38:17.007Z,15.30
2018-01-07T05:40:44.533Z,16.87
2018-01-07T05:43:12.030Z,18.47
2018-01-07T05:45:39.643Z,17.37
2018-01-07T05:48:07.141Z,16.03
2018-01-07T05:50:34.754Z,19.20
2018-01-07T05:53:02.255Z,15.20
2018-01-07T05:55:29.765Z,17.67
2018-01-07T05:57:58.022Z,17.17
2018-01-07T06:00:25.539Z,11.33
2018-01-07T06:02:53.039Z,17.93
2018-01-07T06:05:21.323Z,12.70
2018-01-07T06:07:49.586Z,14.50
2018-01-07T06:10:17.106Z,14.77
2018-01-07T06:12:44.605Z,12.83
2018-01-07T06:15:12.118Z,16.13
2018-01-07T06:17:39.625Z,15.73
2018-01-07T06:20:07.924Z,17.30
2018-01-07T06:22:35.434Z,14.40
2018-01-07T06:25:02.952Z,17.70
2018-01-07T06:27:30.503Z,19.30
2018-01-07T06:29:58.026Z,17.97
2018-01-07T06:32:25.622Z,18.43
2018-01-07T06:34:53.133Z,16.90
2018-01-07T06:37:20.634Z,18.43
2018-01-07T06:39:48.148Z,12.73
2018-01-07T06:42:15.650Z,19.67
2018-01-07T06:44:43.171Z,22.57
2018-01-07T06:47:10.673Z,20.50
2018-01-07T06:49:38.203Z,27.73
2018-01-07T06:52:06.507Z,26.77
2018-01-07T06:54:34.017Z,21.20
2018-01-07T06:57:01.537Z,20.27
2018-01-07T06:59:29.034Z,17.43
2018-01-07T07:01:56.738Z,25.10
2018-01-07T07:04:24.293Z,20.90
2018-01-07T07:06:51.868Z,22.23
2018-01-07T07:09:19.362Z,22.23
2018-01-07T07:11:46.877Z,25.70
2018-01-07T07:14:14.386Z,19.23
2018-01-07T07:16:42.000Z,21.27
2018-01-07T07:19:09.555Z,18.70
2018-01-07T07:21:37.066Z,19.40
2018-01-07T07:24:04.566Z,14.87
2018-01-07T07:26:32.125Z,19.17
2018-01-07T07:28:59.626Z,19.97
2018-01-07T07:31:27.146Z,17.90
2018-01-07T07:33:54.637Z,18.60
2018-01-07T07:36:22.155Z,17.90
2018-01-07T07:38:49.668Z,23.97
2018-01-07T07:41:17.187Z,19.13
2018-01-07T07:43:44.689Z,17.83
2018-01-07T07:46:12.210Z,16.97
2018-01-07T07:48:39.732Z,23.80
2018-01-07T07:51:08.023Z,17.37
2018-01-07T07:53:35.629Z,26.57
2018-01-07T07:56:03.138Z,116.93
2018-01-07T07:58:30.707Z,153.97
2018-01-07T08:00:58.233Z,139.70
2018-01-07T08:03:25.734Z,33.77
2018-01-07T08:05:53.253Z,83.57
2018-01-07T08:08:21.527Z,148.37
2018-01-07T08:10:49.823Z,280.30
2018-01-07T08:13:17.327Z,28.53
2018-01-07T08:15:44.842Z,99.77
2018-01-07T08:18:12.342Z,42.87
2018-01-07T08:20:39.975Z,272.43
2018-01-07T08:23:07.481Z,60.30
2018-01-07T08:25:35.010Z,38.23
2018-01-07T08:28:02.512Z,23.90
2018-01-07T08:30:30.814Z,128.63
2018-01-07T08:32:58.379Z,33.10
2018-01-07T08:35:25.887Z,54.67
2018-01-07T08:37:54.215Z,123.80
2018-01-07T08:40:21.762Z,95.10
2018-01-07T08:42:49.282Z,36.27
2018-01-07T08:45:16.778Z,76.33
2018-01-07T08:47:44.297Z,63.63
2018-01-07T08:50:11.804Z,43.53
2018-01-07T08:52:39.318Z,40.20
2018-01-07T08:55:07.046Z,21.20
2018-01-07T08:57:34.579Z,58.27
2018-01-07T09:00:02.079Z,52.07
2018-01-07T09:02:29.603Z,108.70
2018-01-07T09:04:57.108Z,31.70
2018-01-07T09:07:24.637Z,27.87
2018-01-07T09:09:52.139Z,29.07
2018-01-07T09:12:19.663Z,20.00
2018-01-07T09:14:47.186Z,42.57
2018-01-07T09:17:14.707Z,30.40
2018-01-07T09:19:42.212Z,33.07
2018-01-07T09:22:09.729Z,54.87
2018-01-07T09:24:37.227Z,37.00
2018-01-07T09:27:04.774Z,38.80
2018-01-07T09:29:32.273Z,65.30
2018-01-07T09:31:59.890Z,46.03
2018-01-07T09:34:27.491Z,77.37
2018-01-07T09:36:55.011Z,68.53
2018-01-07T09:39:22.515Z,41.60
2018-01-07T09:41:50.398Z,18.73
2018-01-07T09:44:18.806Z,19.90
2018-01-07T09:46:46.384Z,25.60
2018-01-07T09:49:13.887Z,30.90
2018-01-07T09:51:41.414Z,20.07
2018-01-07T09:54:08.945Z,21.97
2018-01-07T09:56:36.462Z,21.73
2018-01-07T09:59:03.961Z,23.10
2018-01-07T10:01:31.487Z,37.33
2018-01-07T10:03:58.985Z,29.20
2018-01-07T10:06:26.515Z,28.30
2018-01-07T10:08:54.785Z,24.50
2018-01-07T10:11:22.304Z,22.73
2018-01-07T10:13:49.798Z,29.67
2018-01-07T10:16:17.293Z,26.43
2018-01-07T10:18:44.806Z,54.50
2018-01-07T10:21:12.303Z,32.70
2018-01-07T10:23:39.834Z,31.43
2018-01-07T10:26:07.338Z,26.33
2018-01-07T10:28:34.854Z,35.33
2018-01-07T10:31:03.125Z,49.10
2018-01-07T10:33:31.405Z,73.37
2018-01-07T10:35:59.674Z,48.20
2018-01-07T10:38:27.194Z,36.37
2018-01-07T10:40:54.690Z,68.70
2018-01-07T10:43:22.202Z,41.63
2018-01-07T10:45:49.714Z,33.70
2018-01-07T10:48:18.004Z,60.73
2018-01-07T10:50:46.269Z,59.73
2018-01-07T10:53:14.564Z,51.70
2018-01-07T10:55:42.080Z,63.57
2018-01-07T10:58:09.599Z,48.23
2018-01-07T11:00:42.839Z,57.17
2018-01-07T11:03:10.355Z,42.17
2018-01-07T11:05:37.845Z,47.50
2018-01-07T11:08:05.368Z,65.67
2018-01-07T11:10:32.862Z,58.40
2018-01-07T11:13:00.383Z,70.47
2018-01-07T11:15:27.883Z,49.70
2018-01-07T11:17:55.446Z,69.73
2018-01-07T11:20:22.918Z,60.90
2018-01-07T11:22:50.439Z,61.87
2018-01-07T11:25:17.939Z,70.07
2018-01-07T11:27:46.230Z,66.17
2018-01-07T11:30:13.738Z,85.33
2018-01-07T11:32:41.264Z,67.53
2018-01-07T11:35:08.762Z,54.83
2018-01-07T11:37:36.274Z,57.03
2018-01-07T11:40:03.775Z,46.27
2018-01-07T11:42:31.298Z,53.70
2018-01-07T11:44:58.820Z,60.33
2018-01-07T11:47:27.107Z,62.80
2018-01-07T11:49:54.652Z,57.33
2018-01-07T11:52:22.933Z,67.47
2018-01-07T11:54:51.198Z,148.70
2018-01-07T11:57:19.486Z,101.57
2018-01-07T11:59:47.797Z,53.00
2018-01-07T12:02:15.294Z,93.07
2018-01-07T12:04:42.811Z,84.00
2018-01-07T12:07:10.356Z,135.67
2018-01-07T12:09:37.884Z,98.93
2018-01-07T12:12:06.150Z,79.47
2018-01-07T12:14:33.666Z,80.63
2018-01-07T12:17:01.210Z,127.47
2018-01-07T12:19:29.472Z,79.07
2018-01-07T12:21:56.995Z,90.13
2018-01-07T12:24:24.517Z,63.27
2018-01-07T12:26:52.024Z,67.80
2018-01-07T12:29:20.315Z,94.37
2018-01-07T12:31:48.586Z,65.23
2018-01-07T12:34:16.870Z,58.23
2018-01-07T12:36:45.147Z,69.80
2018-01-07T12:39:13.426Z,59.10
2018-01-07T12:41:41.690Z,64.03
2018-01-07T12:44:09.970Z,53.30
2018-01-07T12:46:38.243Z,53.10
2018-01-07T12:49:06.526Z,44.03
2018-01-07T12:51:34.794Z,49.97
2018-01-07T12:54:03.077Z,48.77
2018-01-07T12:56:31.342Z,42.60
2018-01-07T12:58:59.677Z,44.70
2018-01-07T13:01:27.170Z,51.40
2018-01-07T13:03:54.727Z,48.37
2018-01-07T13:06:22.687Z,42.90
2018-01-07T13:08:50.206Z,45.23
2018-01-07T13:11:17.747Z,46.77
2018-01-07T13:13:45.257Z,43.47
2018-01-07T13:16:12.763Z,40.37
2018-01-07T13:18:40.290Z,40.47
2018-01-07T13:21:08.565Z,40.90
2018-01-07T13:23:36.850Z,37.50
2018-01-07T13:26:05.169Z,40.50
2018-01-07T13:28:32.691Z,43.73
2018-01-07T13:31:00.206Z,42.63
2018-01-07T13:33:27.773Z,37.90
2018-01-07T13:35:55.317Z,38.37
2018-01-07T13:38:22.843Z,44.17
2018-01-07T13:40:50.351Z,37.53
2018-01-07T13:43:17.913Z,36.33
2018-01-07T13:45:45.410Z,38.73
2018-01-07T13:48:12.985Z,36.23
2018-01-07T13:50:40.490Z,39.43
2018-01-07T13:53:07.991Z,39.23
2018-01-07T13:55:35.516Z,41.13
2018-01-07T13:58:03.018Z,35.93
2018-01-07T14:00:30.587Z,38.57
2018-01-07T14:02:58.081Z,37.37
2018-01-07T14:05:25.599Z,40.07
2018-01-07T14:07:53.106Z,34.70
2018-01-07T14:10:20.626Z,39.97
2018-01-07T14:12:48.135Z,37.97
2018-01-07T14:15:16.421Z,43.80
2018-01-07T14:17:44.686Z,36.80
2018-01-07T14:20:13.021Z,39.43
2018-01-07T14:22:40.522Z,43.67
2018-01-07T14:25:08.822Z,41.07
2018-01-07T14:27:36.331Z,45.27
2018-01-07T14:30:03.858Z,45.00
2018-01-07T14:32:31.400Z,52.60
2018-01-07T14:34:58.914Z,51.93
2018-01-07T14:37:26.415Z,60.77
2018-01-07T14:39:53.939Z,59.40
2018-01-07T14:42:21.480Z,63.40
2018-01-07T14:44:48.994Z,69.63
2018-01-07T14:47:16.499Z,80.77
2018-01-07T14:49:44.023Z,78.27
2018-01-07T14:52:11.564Z,74.00
2018-01-07T14:54:39.082Z,75.83
2018-01-07T14:57:06.631Z,82.17
2018-01-07T14:59:34.150Z,76.53
2018-01-07T15:02:01.654Z,84.47
2018-01-07T15:04:29.179Z,80.63
2018-01-07T15:06:56.673Z,82.50
2018-01-07T15:09:24.190Z,80.60
2018-01-07T15:11:51.745Z,85.73
2018-01-07T15:14:19.308Z,79.80
2018-01-07T15:16:46.862Z,78.87
2018-01-07T15:19:14.399Z,74.30
2018-01-07T15:21:41.902Z,87.50
2018-01-07T15:24:09.442Z,83.87
2018-01-07T15:26:37.023Z,81.80
2018-01-07T15:29:04.518Z,90.03
2018-01-07T15:31:32.841Z,79.77
2018-01-07T15:34:00.375Z,85.50
2018-01-07T15:36:27.890Z,89.10
2018-01-07T15:38:55.437Z,121.83
2018-01-07T15:41:23.021Z,81.83
2018-01-07T15:43:50.568Z,84.07
2018-01-07T15:46:18.087Z,87.40
2018-01-07T15:48:45.591Z,79.83
2018-01-07T15:51:13.157Z,78.33
2018-01-07T15:53:41.453Z,122.83
2018-01-07T15:56:09.030Z,100.47
2018-01-07T15:58:36.532Z,104.93
2018-01-07T16:01:04.046Z,84.93
2018-01-07T16:03:31.561Z,76.17
2018-01-07T16:05:59.120Z,57.23
2018-01-07T16:08:26.651Z,56.23
2018-01-07T16:10:54.170Z,50.17
2018-01-07T16:13:21.722Z,51.97
2018-01-07T16:15:49.285Z,44.80
2018-01-07T16:18:16.807Z,36.43
2018-01-07T16:20:44.363Z,38.07
2018-01-07T16:23:11.858Z,44.27
2018-01-07T16:25:39.386Z,34.27
2018-01-07T16:28:06.933Z,41.80
2018-01-07T16:30:34.492Z,35.50
2018-01-07T16:33:02.038Z,47.93
2018-01-07T16:35:29.610Z,48.27
2018-01-07T16:37:57.165Z,36.07
2018-01-07T16:40:24.745Z,41.13
2018-01-07T16:42:53.057Z,58.03
2018-01-07T16:45:20.626Z,94.33
2018-01-07T16:47:48.173Z,57.53
2018-01-07T16:50:15.710Z,57.37
2018-01-07T16:52:44.026Z,47.93
2018-01-07T16:55:11.585Z,48.63
2018-01-07T16:57:39.142Z,47.20
2018-01-07T17:00:06.639Z,45.00
2018-01-07T17:02:34.206Z,57.47
2018-01-07T17:05:01.747Z,54.37
2018-01-07T17:07:29.261Z,51.97
2018-01-07T17:09:56.813Z,49.60
2018-01-07T17:12:24.382Z,56.73
2018-01-07T17:14:51.933Z,61.07
2018-01-07T17:17:19.503Z,51.00
2018-01-07T17:19:47.051Z,49.00
2018-01-07T17:22:14.625Z,50.97
2018-01-07T17:24:42.126Z,48.57
2018-01-07T17:27:09.708Z,54.77
2018-01-07T17:29:38.017Z,58.80
2018-01-07T17:32:05.595Z,58.37
2018-01-07T17:34:33.132Z,61.33
2018-01-07T17:37:00.698Z,59.73
2018-01-07T17:39:28.253Z,55.47
2018-01-07T17:41:55.819Z,72.20
2018-01-07T17:44:23.375Z,79.43
2018-01-07T17:46:50.946Z,72.73
2018-01-07T17:49:18.497Z,74.60
2018-01-07T17:51:46.056Z,66.97
2018-01-07T17:54:13.611Z,73.50
2018-01-07T17:56:41.168Z,63.30
2018-01-07T17:59:08.709Z,72.40
2018-01-07T18:01:37.118Z,79.97
2018-01-07T18:04:04.627Z,74.27
2018-01-07T18:06:32.957Z,77.03
2018-01-07T18:09:00.505Z,77.70
2018-01-07T18:11:28.070Z,75.13
2018-01-07T18:13:55.655Z,76.03
2018-01-07T18:16:23.230Z,82.17
2018-01-07T18:18:50.780Z,76.13
2018-01-07T18:21:18.345Z,64.80
2018-01-07T18:23:45.884Z,78.37
2018-01-07T18:26:13.431Z,69.07
2018-01-07T18:28:40.997Z,70.43
2018-01-07T18:31:08.545Z,77.80
2018-01-07T18:33:36.104Z,80.37
2018-01-07T18:36:03.644Z,90.10
2018-01-07T18:38:31.209Z,72.50
2018-01-07T18:40:58.751Z,78.20
2018-01-07T18:43:26.315Z,76.67
2018-01-07T18:45:53.861Z,80.33
2018-01-07T18:48:22.180Z,82.03
2018-01-07T18:50:49.729Z,82.13
2018-01-07T18:53:17.306Z,91.97
2018-01-07T18:55:45.634Z,91.37
2018-01-07T18:58:13.966Z,98.17
2018-01-07T19:00:41.530Z,88.27
2018-01-07T19:03:09.085Z,87.60
2018-01-07T19:05:36.632Z,79.73
2018-01-07T19:08:04.202Z,85.53
2018-01-07T19:10:31.749Z,97.13
2018-01-07T19:12:59.312Z,91.23
2018-01-07T19:15:27.625Z,86.53
2018-01-07T19:17:55.193Z,90.93
2018-01-07T19:20:23.518Z,82.57
2018-01-07T19:22:51.072Z,94.57
2018-01-07T19:25:18.621Z,93.10
2018-01-07T19:27:46.187Z,87.83
2018-01-07T19:30:13.747Z,90.30
2018-01-07T19:32:41.318Z,88.70
2018-01-07T19:35:08.902Z,93.57
2018-01-07T19:37:36.473Z,87.17
2018-01-07T19:40:04.802Z,91.60
2018-01-07T19:42:32.381Z,83.07
2018-01-07T19:44:59.932Z,84.20
2018-01-07T19:47:27.502Z,87.83
2018-01-07T19:49:55.067Z,87.07
2018-01-07T19:52:22.646Z,85.20
2018-01-07T19:54:50.211Z,90.60
2018-01-07T19:57:18.801Z,88.93
2018-01-07T19:59:47.122Z,91.47
2018-01-07T20:02:14.697Z,76.10
2018-01-07T20:04:42.249Z,84.20
2018-01-07T20:07:09.824Z,88.77
2018-01-07T20:09:37.631Z,84.43
2018-01-07T20:12:05.975Z,75.43
2018-01-07T20:14:33.546Z,79.87
2018-01-07T20:17:01.184Z,85.50
2018-01-07T20:19:28.753Z,81.33
2018-01-07T20:21:56.305Z,86.90
2018-01-07T20:24:23.878Z,92.33
2018-01-07T20:26:51.434Z,81.83
2018-01-07T20:29:18.994Z,90.43
2018-01-07T20:31:46.566Z,87.37
2018-01-07T20:34:14.910Z,80.47
2018-01-07T20:36:42.490Z,93.93
2018-01-07T20:39:10.058Z,86.60
2018-01-07T20:41:37.609Z,77.87
2018-01-07T20:44:05.182Z,83.07
2018-01-07T20:46:33.539Z,78.43
2018-01-07T20:49:01.117Z,78.60
2018-01-07T20:51:28.675Z,86.60
2018-01-07T20:53:57.011Z,84.10
2018-01-07T20:56:24.838Z,87.37
2018-01-07T20:58:53.179Z,80.93
2018-01-07T21:01:20.741Z,89.17
2018-01-07T21:03:48.301Z,79.27
2018-01-07T21:06:16.621Z,77.23
2018-01-07T21:08:44.190Z,87.27
2018-01-07T21:11:11.745Z,87.40
2018-01-07T21:13:39.325Z,89.63
2018-01-07T21:16:06.883Z,87.73
2018-01-07T21:18:34.457Z,108.13
2018-01-07T21:21:02.013Z,92.97
2018-01-07T21:23:29.684Z,80.97
2018-01-07T21:25:57.238Z,84.23
2018-01-07T21:28:24.815Z,86.57
2018-01-07T21:30:52.465Z,96.17
2018-01-07T21:33:20.143Z,106.23
2018-01-07T21:35:47.703Z,97.17
2018-01-07T21:38:15.353Z,98.10
2018-01-07T21:40:42.910Z,96.47
2018-01-07T21:43:10.573Z,107.10
2018-01-07T21:45:38.134Z,102.77
2018-01-07T21:48:05.705Z,94.93
2018-01-07T21:50:33.353Z,86.17
2018-01-07T21:53:00.930Z,100.33
2018-01-07T21:55:28.575Z,100.90
2018-01-07T21:57:56.306Z,87.30
2018-01-07T22:00:45.066Z,85.93
2018-01-07T22:03:24.462Z,117.70
2018-01-07T22:05:55.082Z,94.30
2018-01-07T22:08:23.712Z,96.70
2018-01-07T22:10:51.421Z,97.07
2018-01-07T22:13:19.767Z,86.33
2018-01-07T22:15:47.450Z,108.50
2018-01-07T22:18:16.518Z,92.40
2018-01-07T22:20:45.098Z,97.97
2018-01-07T22:23:12.742Z,96.83
2018-01-07T22:25:40.443Z,101.17
2018-01-07T22:28:08.050Z,95.80
2018-01-07T22:30:35.753Z,91.17
2018-01-07T22:33:03.309Z,91.80
2018-01-07T22:35:30.981Z,82.33
2018-01-07T22:37:58.627Z,91.37
2018-01-07T22:40:26.258Z,83.07
2018-01-07T22:42:53.854Z,88.67
2018-01-07T22:45:21.496Z,85.80
2018-01-07T22:47:54.817Z,90.47
2018-01-07T22:50:22.403Z,82.10
2018-01-07T22:52:50.031Z,79.87
2018-01-07T22:55:17.607Z,87.93
2018-01-07T22:57:45.157Z,92.50
2018-01-07T23:00:12.773Z,80.27
2018-01-07T23:02:41.074Z,70.57
2018-01-07T23:05:08.655Z,73.20
2018-01-07T23:07:36.215Z,82.77
2018-01-07T23:10:03.786Z,73.07
2018-01-07T23:12:31.341Z,75.50
2018-01-07T23:14:59.001Z,73.83
2018-01-07T23:17:26.554Z,79.07
2018-01-07T23:19:54.126Z,79.50
2018-01-07T23:22:21.677Z,80.40
2018-01-07T23:24:49.253Z,81.93
2018-01-07T23:27:17.237Z,88.20
2018-01-07T23:29:45.527Z,98.37
2018-01-07T23:32:13.081Z,85.83
2018-01-07T23:34:41.415Z,91.30
2018-01-07T23:37:08.952Z,89.17
2018-01-07T23:39:36.529Z,88.13
2018-01-07T23:42:04.080Z,95.23
2018-01-07T23:44:31.653Z,96.13
2018-01-07T23:46:59.164Z,86.50
2018-01-07T23:49:26.721Z,91.43
2018-01-07T23:51:54.222Z,91.70
2018-01-07T23:54:21.885Z,94.60
2018-01-07T23:56:49.429Z,94.97
2018-01-07T23:59:16.942Z,91.73
